createdAt,value
2022-11-16T00:00:29.035Z,67.25
2022-11-16T00:02:57.063Z,62.90
2022-11-16T00:05:28.487Z,57.03
2022-11-16T00:07:58.139Z,60.50
2022-11-16T00:10:26.084Z,60.53
2022-11-16T00:12:54.206Z,49.90
2022-11-16T00:15:22.729Z,54.63
2022-11-16T00:17:50.670Z,53.30
2022-11-16T00:20:19.135Z,45.33
2022-11-16T00:22:47.662Z,47.08
2022-11-16T00:25:15.650Z,51.72
2022-11-16T00:27:43.826Z,52.13
2022-11-16T00:30:12.431Z,40.92
2022-11-16T00:32:40.384Z,50.08
2022-11-16T00:35:09.296Z,55.05
2022-11-16T00:37:37.240Z,58.13
2022-11-16T00:40:06.090Z,53.45
2022-11-16T00:42:34.903Z,49.20
2022-11-16T00:45:03.159Z,53.15
2022-11-16T00:47:31.018Z,53.58
2022-11-16T00:49:59.626Z,42.50
2022-11-16T00:52:27.618Z,48.05
2022-11-16T00:54:55.820Z,43.63
2022-11-16T00:57:25.199Z,46.33
2022-11-16T00:59:53.207Z,46.38
2022-11-16T01:02:21.971Z,45.33
2022-11-16T01:04:50.195Z,50.13
2022-11-16T01:07:18.161Z,36.75
2022-11-16T01:09:47.824Z,46.90
2022-11-16T01:12:18.077Z,44.78
2022-11-16T01:14:48.540Z,44.92
2022-11-16T01:17:16.414Z,44.60
2022-11-16T01:19:44.738Z,40.70
2022-11-16T01:22:12.795Z,48.55
2022-11-16T01:24:42.363Z,50.75
2022-11-16T01:27:10.702Z,44.42
2022-11-16T01:29:41.336Z,44.63
2022-11-16T01:32:09.334Z,41.00
2022-11-16T01:34:38.379Z,42.83
2022-11-16T01:37:38.556Z,42.28
2022-11-16T01:40:08.306Z,43.33
2022-11-16T01:42:37.547Z,41.80
2022-11-16T01:45:41.398Z,42.35
2022-11-16T01:48:18.264Z,48.58
2022-11-16T01:50:47.842Z,45.03
2022-11-16T01:53:17.060Z,47.17
2022-11-16T01:55:51.372Z,47.15
2022-11-16T01:58:38.419Z,41.70
2022-11-16T02:01:18.192Z,50.45
2022-11-16T02:03:51.829Z,50.65
2022-11-16T02:06:27.553Z,47.70
2022-11-16T02:09:55.500Z,54.08
2022-11-16T02:12:59.460Z,43.63
2022-11-16T02:15:57.359Z,46.30
2022-11-16T02:18:45.026Z,45.35
2022-11-16T02:21:45.414Z,44.38
2022-11-16T02:24:44.396Z,44.10
2022-11-16T02:27:43.411Z,48.38
2022-11-16T02:30:11.886Z,51.13
2022-11-16T02:32:58.330Z,45.97
2022-11-16T02:35:32.757Z,42.22
2022-11-16T02:38:28.780Z,46.25
2022-11-16T02:41:05.352Z,42.92
2022-11-16T02:43:53.278Z,48.08
2022-11-16T02:46:39.029Z,41.45
2022-11-16T02:49:17.394Z,49.92
2022-11-16T02:51:47.996Z,43.55
2022-11-16T02:54:19.486Z,42.00
2022-11-16T02:57:04.042Z,41.55
2022-11-16T02:59:49.009Z,42.30
2022-11-16T03:02:29.649Z,48.80
2022-11-16T03:05:08.730Z,44.63
2022-11-16T03:07:55.680Z,40.97
2022-11-16T03:10:58.216Z,43.65
2022-11-16T03:13:31.597Z,39.97
2022-11-16T03:16:05.490Z,43.42
2022-11-16T03:18:34.615Z,40.10
2022-11-16T03:21:35.306Z,45.80
2022-11-16T03:24:05.083Z,42.58
2022-11-16T03:26:51.749Z,40.05
2022-11-16T03:30:01.655Z,39.97
2022-11-16T03:33:02.812Z,44.67
2022-11-16T03:36:00.892Z,39.10
2022-11-16T03:38:33.754Z,46.42
2022-11-16T03:41:09.375Z,40.80
2022-11-16T03:43:39.058Z,43.65
2022-11-16T03:46:08.143Z,38.53
2022-11-16T03:48:39.412Z,39.95
2022-11-16T03:51:15.217Z,39.38
2022-11-16T03:53:43.841Z,42.28
2022-11-16T03:56:13.229Z,35.47
2022-11-16T03:58:42.232Z,34.30
2022-11-16T04:01:10.885Z,36.17
2022-11-16T04:03:39.540Z,34.45
2022-11-16T04:06:29.715Z,34.05
2022-11-16T04:09:16.527Z,31.92
2022-11-16T04:12:03.992Z,39.35
2022-11-16T04:14:51.221Z,33.15
2022-11-16T04:17:41.738Z,32.28
2022-11-16T04:20:31.389Z,30.88
2022-11-16T04:23:32.399Z,34.72
2022-11-16T04:26:00.843Z,37.00
2022-11-16T04:28:34.064Z,33.38
2022-11-16T04:31:24.853Z,30.05
2022-11-16T04:34:19.355Z,32.03
2022-11-16T04:37:10.766Z,27.50
2022-11-16T04:39:40.522Z,33.10
2022-11-16T04:42:20.021Z,27.77
2022-11-16T04:45:10.425Z,35.92
2022-11-16T04:47:52.087Z,36.78
2022-11-16T04:50:22.021Z,30.75
2022-11-16T04:52:51.602Z,32.30
2022-11-16T04:55:21.909Z,34.10
2022-11-16T04:57:51.806Z,29.27
2022-11-16T05:00:22.540Z,34.58
2022-11-16T05:02:53.690Z,33.28
2022-11-16T05:05:23.816Z,32.67
2022-11-16T05:07:53.589Z,28.05
2022-11-16T05:10:27.201Z,32.15
2022-11-16T05:12:57.498Z,28.92
2022-11-16T05:15:26.593Z,29.10
2022-11-16T05:17:55.981Z,29.45
2022-11-16T05:20:44.905Z,26.10
2022-11-16T05:23:33.912Z,28.30
2022-11-16T05:26:08.160Z,29.15
2022-11-16T05:28:36.694Z,31.60
2022-11-16T05:31:04.828Z,25.35
2022-11-16T05:33:33.379Z,27.73
2022-11-16T05:36:01.643Z,30.38
2022-11-16T05:38:29.743Z,23.25
2022-11-16T05:41:00.750Z,26.63
2022-11-16T05:43:30.364Z,31.63
2022-11-16T05:46:08.217Z,26.92
2022-11-16T05:48:36.941Z,26.70
2022-11-16T05:51:06.729Z,25.77
2022-11-16T05:53:35.738Z,27.17
2022-11-16T05:56:08.083Z,26.02
2022-11-16T05:58:39.723Z,21.65
2022-11-16T06:01:07.861Z,21.00
2022-11-16T06:03:36.744Z,24.33
2022-11-16T06:06:05.674Z,29.17
2022-11-16T06:08:34.079Z,25.30
2022-11-16T06:11:08.913Z,24.35
2022-11-16T06:13:37.906Z,23.70
2022-11-16T06:16:07.741Z,21.92
2022-11-16T06:18:43.360Z,25.02
2022-11-16T06:21:13.829Z,19.63
2022-11-16T06:23:42.492Z,20.58
2022-11-16T06:26:10.765Z,14.13
2022-11-16T06:28:40.349Z,18.48
2022-11-16T06:31:08.593Z,15.73
2022-11-16T06:33:42.037Z,12.75
2022-11-16T06:36:21.569Z,13.38
2022-11-16T06:38:51.252Z,11.35
2022-11-16T06:41:21.168Z,9.50
2022-11-16T06:54:04.539Z,9.80
2022-11-16T06:56:35.423Z,9.63
2022-11-16T06:59:06.415Z,10.35
2022-11-16T07:01:36.065Z,10.50
2022-11-16T07:04:12.157Z,11.98
2022-11-16T07:06:44.304Z,10.18
2022-11-16T07:09:15.406Z,11.32
2022-11-16T07:11:44.806Z,12.07
2022-11-16T07:14:14.663Z,11.05
2022-11-16T07:16:44.120Z,11.88
2022-11-16T07:19:13.008Z,11.23
2022-11-16T07:21:42.181Z,11.32
2022-11-16T07:24:15.570Z,10.02
2022-11-16T07:26:43.646Z,11.45
2022-11-16T07:29:16.925Z,12.93
2022-11-16T07:32:03.835Z,11.35
2022-11-16T07:34:51.825Z,10.20
2022-11-16T07:37:20.022Z,10.75
2022-11-16T07:39:48.687Z,11.38
2022-11-16T07:42:17.315Z,12.13
2022-11-16T07:44:52.680Z,10.57
2022-11-16T07:47:20.804Z,10.35
2022-11-16T07:49:49.166Z,9.95
2022-11-16T07:52:20.331Z,11.35
2022-11-16T07:54:57.949Z,11.05
2022-11-16T07:57:28.264Z,12.37
2022-11-16T08:00:02.753Z,10.63
2022-11-16T08:05:12.634Z,9.80
2022-11-16T08:07:41.213Z,9.82
2022-11-16T08:10:09.742Z,9.98
2022-11-16T08:12:38.038Z,8.85
2022-11-16T08:15:07.850Z,9.73
2022-11-16T08:17:35.830Z,8.73
2022-11-16T08:20:06.810Z,8.68
2022-11-16T08:22:36.056Z,11.68
2022-11-16T08:25:04.631Z,9.23
2022-11-16T08:27:33.558Z,10.45
2022-11-16T08:30:09.311Z,7.72
2022-11-16T08:32:38.383Z,5.15
2022-11-16T08:35:07.045Z,9.73
2022-11-16T08:37:35.754Z,7.35
2022-11-16T08:40:04.932Z,7.70
2022-11-16T08:42:43.296Z,7.07
2022-11-16T08:45:12.562Z,5.25
2022-11-16T08:47:40.657Z,6.53
2022-11-16T08:50:09.755Z,6.93
2022-11-16T08:52:39.352Z,6.15
2022-11-16T08:55:08.269Z,4.68
2022-11-16T08:57:36.658Z,5.68
2022-11-16T09:00:11.406Z,4.70
2022-11-16T09:02:39.322Z,5.80
2022-11-16T09:05:08.282Z,4.47
2022-11-16T09:07:36.511Z,5.63
2022-11-16T09:10:05.300Z,5.15
2022-11-16T09:12:35.438Z,3.65
2022-11-16T09:15:06.006Z,6.55
2022-11-16T09:17:34.047Z,4.57
2022-11-16T09:20:01.923Z,5.90
2022-11-16T09:22:30.001Z,4.88
2022-11-16T09:24:58.037Z,7.88
2022-11-16T09:27:26.003Z,4.90
2022-11-16T09:29:54.269Z,3.90
2022-11-16T09:32:22.217Z,5.18
2022-11-16T09:34:51.520Z,4.65
2022-11-16T09:37:19.608Z,3.03
2022-11-16T09:39:47.476Z,2.60
2022-11-16T09:43:01.397Z,2.38
2022-11-16T09:45:39.161Z,4.22
2022-11-16T09:48:12.714Z,6.28
2022-11-16T09:51:08.268Z,4.95
2022-11-16T09:54:08.078Z,5.45
2022-11-16T09:56:41.249Z,3.20
2022-11-16T09:59:13.510Z,2.38
2022-11-16T10:01:53.287Z,3.08
2022-11-16T10:04:37.328Z,2.92
2022-11-16T10:07:22.713Z,4.55
2022-11-16T10:09:50.886Z,6.50
2022-11-16T10:12:55.844Z,3.70
2022-11-16T10:15:26.804Z,3.17
2022-11-16T10:18:13.485Z,4.55
2022-11-16T10:21:02.271Z,4.40
2022-11-16T10:24:01.669Z,4.03
2022-11-16T10:26:55.871Z,4.43
2022-11-16T10:29:52.916Z,3.05
2022-11-16T10:32:28.453Z,1.85
2022-11-16T10:35:10.946Z,4.18
2022-11-16T10:37:47.229Z,2.72
2022-11-16T10:40:29.870Z,6.07
2022-11-16T10:43:13.584Z,5.15
2022-11-16T10:46:08.547Z,2.63
2022-11-16T10:49:02.884Z,3.92
2022-11-16T10:51:30.984Z,3.85
2022-11-16T10:53:59.166Z,4.13
2022-11-16T10:56:39.832Z,5.93
2022-11-16T10:59:14.041Z,7.80
2022-11-16T11:01:44.955Z,4.55
2022-11-16T11:04:31.433Z,5.93
2022-11-16T11:07:02.922Z,11.20
2022-11-16T11:09:41.903Z,3.85
2022-11-16T11:12:37.248Z,4.13
2022-11-16T11:15:10.958Z,6.25
2022-11-16T11:17:47.422Z,8.35
2022-11-16T11:20:21.454Z,14.25
2022-11-16T11:23:13.153Z,6.15
2022-11-16T11:25:57.649Z,7.30
2022-11-16T11:28:46.822Z,6.32
2022-11-16T11:31:28.697Z,7.35
2022-11-16T11:36:39.556Z,6.55
2022-11-16T11:39:14.037Z,6.20
2022-11-16T11:41:45.738Z,4.78
2022-11-16T11:44:13.590Z,7.95
2022-11-16T11:49:50.159Z,6.45
2022-11-16T11:52:39.563Z,5.00
2022-11-16T11:55:08.635Z,7.03
2022-11-16T11:57:43.361Z,6.38
2022-11-16T12:00:16.201Z,8.25
2022-11-16T12:03:31.896Z,5.22
2022-11-16T12:06:13.232Z,6.03
2022-11-16T12:08:50.935Z,3.25
2022-11-16T12:11:39.117Z,5.13
2022-11-16T12:14:49.721Z,5.22
2022-11-16T12:17:46.621Z,5.80
2022-11-16T12:20:27.239Z,6.22
2022-11-16T12:23:22.825Z,5.38
2022-11-16T12:26:09.737Z,4.13
2022-11-16T12:28:54.442Z,4.30
2022-11-16T12:32:10.970Z,4.50
2022-11-16T12:34:57.066Z,4.32
2022-11-16T12:37:51.371Z,4.43
2022-11-16T12:40:31.143Z,5.25
2022-11-16T12:43:26.472Z,4.00
2022-11-16T12:46:01.862Z,4.60
2022-11-16T12:49:17.347Z,4.85
2022-11-16T12:52:27.783Z,7.07
2022-11-16T12:55:26.780Z,4.70
2022-11-16T12:58:19.353Z,6.15
2022-11-16T13:03:46.923Z,5.60
2022-11-16T13:06:27.346Z,7.05
2022-11-16T13:09:21.613Z,5.95
2022-11-16T13:11:57.808Z,7.28
2022-11-16T13:14:30.624Z,10.13
2022-11-16T13:17:01.468Z,10.55
2022-11-16T13:19:29.959Z,3.88
2022-11-16T13:22:16.835Z,5.63
2022-11-16T13:25:11.601Z,2.83
2022-11-16T13:27:50.104Z,3.30
2022-11-16T13:30:33.211Z,4.05
2022-11-16T13:33:50.690Z,4.15
2022-11-16T13:36:39.406Z,3.80
2022-11-16T13:39:10.175Z,4.68
2022-11-16T13:41:50.487Z,4.20
2022-11-16T13:44:21.421Z,4.53
2022-11-16T13:46:56.198Z,7.60
2022-11-16T13:49:42.150Z,5.80
2022-11-16T13:52:54.035Z,4.47
2022-11-16T13:55:29.059Z,7.85
2022-11-16T13:58:02.768Z,10.60
2022-11-16T14:00:39.661Z,12.38
2022-11-16T14:03:38.564Z,8.50
2022-11-16T14:06:13.881Z,7.00
2022-11-16T14:08:56.583Z,7.43
2022-11-16T14:11:32.031Z,7.22
2022-11-16T14:14:05.731Z,29.90
2022-11-16T14:16:50.219Z,11.85
2022-11-16T14:19:49.479Z,11.52
2022-11-16T14:22:32.669Z,6.28
2022-11-16T14:25:45.261Z,7.25
2022-11-16T14:28:57.243Z,9.85
2022-11-16T14:31:46.331Z,5.95
2022-11-16T14:34:41.719Z,5.00
2022-11-16T14:37:31.471Z,3.92
2022-11-16T14:40:14.203Z,4.72
2022-11-16T14:45:57.455Z,5.13
2022-11-16T14:48:26.339Z,5.97
2022-11-16T14:51:38.184Z,6.68
2022-11-16T14:54:48.869Z,3.78
2022-11-16T14:57:23.860Z,5.15
2022-11-16T15:00:18.391Z,23.60
2022-11-16T15:02:52.087Z,9.85
2022-11-16T15:05:26.982Z,4.32
2022-11-16T15:07:58.583Z,4.97
2022-11-16T15:10:29.490Z,5.97
2022-11-16T15:12:58.174Z,8.02
2022-11-16T15:15:31.916Z,8.52
2022-11-16T15:17:59.947Z,7.93
2022-11-16T15:20:31.565Z,8.65
2022-11-16T15:25:56.353Z,7.95
2022-11-16T15:28:31.506Z,8.23
2022-11-16T15:31:04.704Z,5.85
2022-11-16T15:33:41.328Z,9.52
2022-11-16T15:36:39.663Z,4.68
2022-11-16T15:39:23.660Z,8.65
2022-11-16T15:41:52.375Z,7.47
2022-11-16T15:44:22.841Z,10.52
2022-11-16T15:46:57.867Z,12.50
2022-11-16T15:49:37.718Z,9.00
2022-11-16T15:52:06.179Z,7.45
2022-11-16T15:54:54.861Z,8.93
2022-11-16T15:57:26.062Z,10.77
2022-11-16T15:59:57.322Z,12.10
2022-11-16T16:02:29.386Z,9.48
2022-11-16T16:04:58.067Z,9.95
2022-11-16T16:07:49.693Z,10.63
2022-11-16T16:10:20.884Z,11.30
2022-11-16T16:12:55.019Z,9.35
2022-11-16T16:15:34.225Z,11.57
2022-11-16T16:18:04.921Z,12.68
2022-11-16T16:20:33.392Z,8.77
2022-11-16T16:23:16.144Z,13.30
2022-11-16T16:25:50.106Z,8.52
2022-11-16T16:28:18.603Z,10.32
2022-11-16T16:30:46.718Z,13.65
2022-11-16T16:33:19.952Z,11.93
2022-11-16T16:35:49.979Z,13.57
2022-11-16T16:38:18.024Z,12.85
2022-11-16T16:40:46.069Z,11.07
2022-11-16T16:43:14.651Z,13.20
2022-11-16T16:45:44.126Z,13.07
2022-11-16T16:48:12.946Z,10.60
2022-11-16T16:50:40.963Z,9.93
2022-11-16T16:53:12.959Z,11.93
2022-11-16T16:55:42.298Z,12.80
2022-11-16T16:58:15.453Z,13.00
2022-11-16T17:00:43.863Z,22.33
2022-11-16T17:03:11.889Z,23.88
2022-11-16T17:05:40.001Z,22.13
2022-11-16T17:08:08.226Z,17.88
2022-11-16T17:10:39.604Z,11.38
2022-11-16T17:13:09.562Z,11.15
2022-11-16T17:15:38.396Z,10.18
2022-11-16T17:18:06.321Z,8.10
2022-11-16T17:20:34.425Z,8.65
2022-11-16T17:23:03.224Z,7.28
2022-11-16T17:25:33.332Z,8.30
2022-11-16T17:28:01.474Z,8.52
2022-11-16T17:30:29.556Z,8.40
2022-11-16T17:33:00.123Z,8.52
2022-11-16T17:35:31.170Z,5.70
2022-11-16T17:37:59.130Z,8.20
2022-11-16T17:40:27.159Z,4.30
2022-11-16T17:42:58.179Z,3.15
2022-11-16T17:45:26.342Z,5.30
2022-11-16T17:47:54.725Z,5.72
2022-11-16T17:50:23.014Z,5.75
2022-11-16T17:52:51.075Z,5.15
2022-11-16T17:55:19.016Z,5.82
2022-11-16T17:57:48.769Z,9.27
2022-11-16T18:00:18.004Z,6.00
2022-11-16T18:02:45.996Z,4.70
2022-11-16T18:05:14.514Z,8.02
2022-11-16T18:07:43.078Z,7.32
2022-11-16T18:10:15.000Z,5.55
2022-11-16T18:12:47.339Z,5.03
2022-11-16T18:15:32.113Z,5.95
2022-11-16T18:18:00.396Z,5.13
2022-11-16T18:20:29.644Z,5.45
2022-11-16T18:22:58.085Z,9.02
2022-11-16T18:25:26.372Z,7.65
2022-11-16T18:27:55.927Z,7.22
2022-11-16T18:30:24.514Z,9.75
2022-11-16T18:32:52.978Z,6.75
2022-11-16T18:35:21.010Z,8.23
2022-11-16T18:37:49.146Z,6.28
2022-11-16T18:40:18.322Z,6.28
2022-11-16T18:42:46.521Z,8.32
2022-11-16T18:45:14.701Z,7.10
2022-11-16T18:47:43.128Z,8.60
2022-11-16T18:50:19.004Z,6.88
2022-11-16T18:52:49.794Z,7.00
2022-11-16T18:55:17.876Z,6.90
2022-11-16T18:57:45.913Z,4.55
2022-11-16T19:00:15.558Z,5.60
2022-11-16T19:02:45.506Z,6.80
2022-11-16T19:05:13.620Z,6.43
2022-11-16T19:07:42.685Z,6.30
2022-11-16T19:10:10.986Z,6.80
2022-11-16T19:12:39.377Z,7.63
2022-11-16T19:15:07.821Z,8.45
2022-11-16T19:17:53.156Z,6.22
2022-11-16T19:20:24.009Z,7.22
2022-11-16T19:22:51.974Z,7.93
2022-11-16T19:25:20.004Z,8.25
2022-11-16T19:27:49.487Z,5.60
2022-11-16T19:30:18.926Z,5.97
2022-11-16T19:32:46.930Z,5.43
2022-11-16T19:35:16.689Z,9.00
2022-11-16T19:37:44.783Z,4.53
2022-11-16T19:40:13.305Z,6.10
2022-11-16T19:42:43.275Z,5.43
2022-11-16T19:45:12.078Z,6.32
2022-11-16T19:47:40.210Z,7.85
2022-11-16T19:50:11.043Z,7.60
2022-11-16T19:52:39.366Z,5.85
2022-11-16T19:55:08.009Z,6.97
2022-11-16T19:57:36.272Z,4.75
2022-11-16T20:00:05.490Z,8.82
2022-11-16T20:02:33.851Z,7.03
2022-11-16T20:05:02.413Z,6.93
2022-11-16T20:07:30.468Z,7.05
2022-11-16T20:09:58.943Z,6.80
2022-11-16T20:12:27.675Z,9.70
2022-11-16T20:14:58.547Z,7.25
2022-11-16T20:17:26.536Z,5.88
2022-11-16T20:19:54.922Z,5.68
2022-11-16T20:22:23.364Z,6.68
2022-11-16T20:24:52.122Z,7.18
2022-11-16T20:27:20.551Z,6.10
2022-11-16T20:29:48.970Z,5.70
2022-11-16T20:32:17.197Z,6.15
2022-11-16T20:34:45.825Z,5.93
2022-11-16T20:37:13.879Z,3.90
2022-11-16T20:39:42.445Z,5.43
2022-11-16T20:42:10.777Z,4.53
2022-11-16T20:44:38.909Z,4.85
2022-11-16T20:47:06.971Z,4.07
2022-11-16T20:49:35.905Z,5.47
2022-11-16T20:52:04.250Z,5.35
2022-11-16T20:54:32.911Z,6.90
2022-11-16T20:57:01.184Z,5.53
2022-11-16T20:59:29.260Z,5.25
2022-11-16T21:01:57.716Z,4.30
2022-11-16T21:04:26.145Z,4.68
2022-11-16T21:06:54.313Z,6.57
2022-11-16T21:09:23.065Z,5.07
2022-11-16T21:12:10.240Z,6.72
2022-11-16T21:14:39.614Z,6.60
2022-11-16T21:17:07.704Z,6.82
2022-11-16T21:19:35.793Z,10.48
2022-11-16T21:22:03.834Z,5.32
2022-11-16T21:24:32.421Z,6.43
2022-11-16T21:27:00.670Z,7.28
2022-11-16T21:29:30.668Z,6.25
2022-11-16T21:31:58.790Z,5.07
2022-11-16T21:34:29.994Z,5.65
2022-11-16T21:36:58.340Z,5.18
2022-11-16T21:39:26.525Z,5.75
2022-11-16T21:41:54.586Z,5.50
2022-11-16T21:44:22.655Z,6.22
2022-11-16T21:46:53.588Z,7.90
2022-11-16T21:49:21.867Z,4.47
2022-11-16T21:51:50.014Z,4.97
2022-11-16T21:54:17.987Z,5.15
2022-11-16T21:56:46.141Z,7.65
2022-11-16T21:59:36.271Z,4.93
2022-11-16T22:02:04.582Z,6.13
2022-11-16T22:04:51.263Z,3.72
2022-11-16T22:07:34.612Z,5.00
2022-11-16T22:10:11.982Z,4.95
2022-11-16T22:12:40.306Z,4.13
2022-11-16T22:15:09.513Z,5.13
2022-11-16T22:17:43.258Z,4.32
2022-11-16T22:20:11.988Z,6.65
2022-11-16T22:22:40.216Z,4.40
2022-11-16T22:25:08.894Z,5.93
2022-11-16T22:27:52.356Z,2.78
2022-11-16T22:30:25.424Z,4.38
2022-11-16T22:32:53.704Z,5.78
2022-11-16T22:35:22.150Z,4.10
2022-11-16T22:37:55.985Z,4.65
2022-11-16T22:40:35.984Z,5.13
2022-11-16T22:43:04.453Z,3.40
2022-11-16T22:45:32.630Z,4.07
2022-11-16T22:48:07.289Z,3.88
2022-11-16T22:50:35.358Z,4.03
2022-11-16T22:53:03.362Z,4.18
2022-11-16T22:55:34.399Z,6.15
2022-11-16T22:58:04.640Z,4.03
2022-11-16T23:00:40.527Z,3.00
2022-11-16T23:03:10.331Z,3.08
2022-11-16T23:05:38.849Z,3.53
2022-11-16T23:08:06.819Z,8.40
2022-11-16T23:10:55.822Z,3.50
2022-11-16T23:13:42.639Z,2.33
2022-11-16T23:16:10.815Z,3.53
2022-11-16T23:18:38.823Z,3.15
2022-11-16T23:21:25.766Z,4.50
2022-11-16T23:24:29.324Z,2.78
2022-11-16T23:27:17.375Z,4.10
2022-11-16T23:29:45.678Z,2.88
2022-11-16T23:32:13.854Z,3.65
2022-11-16T23:34:41.904Z,3.13
2022-11-16T23:37:10.031Z,2.30
2022-11-16T23:39:37.911Z,3.28
2022-11-16T23:42:24.846Z,4.28
2022-11-16T23:44:52.994Z,1.70
2022-11-16T23:47:21.262Z,3.85
2022-11-16T23:49:49.403Z,3.53
2022-11-16T23:52:17.625Z,2.67
2022-11-16T23:54:45.983Z,3.38
2022-11-16T23:57:14.071Z,3.08
2022-11-16T23:59:42.352Z,3.70
